Terminal Aerodrome Forecast
Issued by NWS Northern Indiana

Home | Current Version | Previous Version | Graphics & Text | Print | Product List | Glossary On
Versions: 1 2 3 4 5 6 7 8 9 10 11 12 13 14 15 16
000
FTUS43 KIWX 281700
TAFFWA
TAF
KFWA 281740Z 2818/2918 33014G22KT P6SM SCT025 BKN035
     FM290000 31004KT P6SM SKC
     FM291400 26004KT P6SM BKN100=

USA.gov is the U.S. government's official web portal to all federal, state and local government web resources and services.